Time;durP1;ratioP1;P1;durP2;ratioP2;P2;SDS_P1;SDS_P2;PMS_P1;PMS_P2;Temp;Humidity;BMP_temperature;BMP_pressure;BME280_temperature;BME280_humidity;BME280_pressure;Samples;Min_cycle;Max_cycle;Signal;HPM_P1;HPM_P2
2023/04/14 00:00:57;;;;;;;16.08;3.78;;;4.10;99.90;;;;;;5092967;28;20056;-62
2023/04/14 00:03:23;;;;;;;20.98;3.85;;;3.90;99.90;;;;;;5100275;28;20438;-63
2023/04/14 00:05:49;;;;;;;15.10;3.60;;;4.10;99.90;;;;;;5112965;28;20100;-62
2023/04/14 00:08:15;;;;;;;16.20;3.88;;;4.30;99.90;;;;;;5113239;28;20491;-62
2023/04/14 00:10:40;;;;;;;16.05;3.53;;;4.00;99.90;;;;;;5111512;28;20082;-62
2023/04/14 00:13:06;;;;;;;15.15;3.75;;;3.80;99.90;;;;;;5111298;28;20100;-62
2023/04/14 00:15:31;;;;;;;14.88;3.75;;;4.10;99.90;;;;;;5113047;28;20054;-62
2023/04/14 00:17:57;;;;;;;15.68;3.65;;;4.10;99.90;;;;;;5113137;28;20058;-65
2023/04/14 00:20:23;;;;;;;12.30;3.17;;;3.90;99.90;;;;;;5113180;28;20048;-63
2023/04/14 00:22:49;;;;;;;14.25;3.50;;;3.90;99.90;;;;;;5112228;28;20092;-62
2023/04/14 00:25:14;;;;;;;18.27;3.78;;;3.60;99.90;;;;;;5096172;28;20396;-62
2023/04/14 00:27:40;;;;;;;14.05;3.60;;;4.00;99.90;;;;;;5092398;28;20048;-62
2023/04/14 00:30:06;;;;;;;16.63;3.92;;;3.90;99.90;;;;;;5092448;28;20036;-62
2023/04/14 00:32:32;;;;;;;;;;;;;;;;;;5092775;28;20060;-64
2023/04/14 00:34:59;;;;;;;16.67;3.97;;;3.90;99.90;;;;;;5101960;28;19929;-64
2023/04/14 00:37:25;;;;;;;;;;;3.70;99.90;;;;;;5113139;28;20213;-62
2023/04/14 00:39:50;;;;;;;12.32;3.42;;;3.90;99.90;;;;;;5105272;28;19926;-63
2023/04/14 00:42:16;;;;;;;11.70;3.20;;;3.90;99.90;;;;;;5089039;28;20051;-62
2023/04/14 00:44:42;;;;;;;17.40;4.05;;;3.90;99.90;;;;;;5093374;28;20044;-62
2023/04/14 00:47:08;;;;;;;12.82;3.40;;;3.70;99.90;;;;;;5092272;28;20113;-65
2023/04/14 00:49:36;;;;;;;14.50;3.58;;;3.80;99.90;;;;;;5092128;28;20047;-68
2023/04/14 00:52:02;;;;;;;13.25;3.40;;;4.00;99.90;;;;;;5092178;28;20044;-62
2023/04/14 00:54:30;;;;;;;11.40;3.70;;;4.00;99.90;;;;;;5091875;28;20052;-63
2023/04/14 00:56:56;;;;;;;12.05;3.40;;;3.80;99.90;;;;;;5093205;28;20093;-63
2023/04/14 00:59:22;;;;;;;10.68;3.50;;;3.80;99.90;;;;;;5092082;28;20059;-62
2023/04/14 01:01:48;;;;;;;17.65;3.65;;;3.90;99.90;;;;;;5092082;28;20097;-64
2023/04/14 01:04:15;;;;;;;13.82;4.03;;;3.90;99.90;;;;;;5093536;28;20047;-62
2023/04/14 01:06:40;;;;;;;17.90;3.95;;;3.80;99.90;;;;;;5112514;28;20097;-63
2023/04/14 01:09:08;;;;;;;12.73;3.13;;;3.70;99.90;;;;;;5111010;28;20106;-62
2023/04/14 01:11:42;;;;;;;17.48;3.65;;;3.70;99.90;;;;;;5112350;28;20093;-63
2023/04/14 01:14:49;;;;;;;13.52;3.28;;;3.70;99.90;;;;;;5112330;28;20043;-64
2023/04/14 01:18:01;;;;;;;10.82;3.30;;;3.70;99.90;;;;;;5071889;28;20040;-62
2023/04/14 01:20:43;;;;;;;12.40;3.63;;;3.70;99.90;;;;;;5071318;28;20504;-63
2023/04/14 01:23:18;;;;;;;13.45;3.60;;;3.80;99.90;;;;;;5071524;28;20167;-63
2023/04/14 01:26:05;;;;;;;12.38;3.50;;;3.70;99.90;;;;;;5083178;28;20438;-62
2023/04/14 01:29:03;;;;;;;18.17;3.67;;;3.40;99.90;;;;;;5091840;28;20051;-64
2023/04/14 01:31:47;;;;;;;16.23;3.90;;;3.40;99.90;;;;;;5091694;28;20086;-65
2023/04/14 01:34:22;;;;;;;10.55;3.38;;;3.50;99.90;;;;;;5093136;28;20056;-64
2023/04/14 01:37:05;;;;;;;12.15;3.70;;;3.60;99.90;;;;;;5108877;28;20480;-63
2023/04/14 01:39:37;;;;;;;12.98;3.33;;;3.20;99.90;;;;;;5116212;28;20040;-62
2023/04/14 01:42:04;;;;;;;11.43;3.38;;;;;;;;;;5116155;28;20063;-63
2023/04/14 01:44:31;;;;;;;13.90;3.80;;;3.30;99.90;;;;;;5116064;28;20143;-62
2023/04/14 01:47:02;;;;;;;14.88;4.13;;;3.40;99.90;;;;;;5103659;28;20403;-65
2023/04/14 01:49:30;;;;;;;13.02;3.53;;;3.50;99.90;;;;;;5095531;28;20048;-63
2023/04/14 01:51:56;;;;;;;12.77;3.70;;;3.70;99.90;;;;;;5095205;28;20404;-63
2023/04/14 01:54:23;;;;;;;13.25;3.55;;;3.60;99.90;;;;;;5094388;28;20051;-62
2023/04/14 01:56:50;;;;;;;12.48;3.92;;;3.20;99.90;;;;;;5096473;28;20044;-64
2023/04/14 01:59:17;;;;;;;14.35;4.35;;;3.70;99.90;;;;;;5094038;28;20048;-62
2023/04/14 02:01:45;;;;;;;11.80;3.85;;;;;;;;;;5095295;28;20051;-66
2023/04/14 02:04:11;;;;;;;11.70;3.67;;;3.70;99.90;;;;;;5095256;28;20069;-62
2023/04/14 02:06:38;;;;;;;13.88;3.42;;;3.30;99.90;;;;;;5097958;28;20043;-63
2023/04/14 02:09:09;;;;;;;10.43;4.05;;;3.40;99.90;;;;;;5115554;27;20066;-63
2023/04/14 02:11:36;;;;;;;14.48;3.97;;;3.30;99.90;;;;;;5115582;28;20063;-62
2023/04/14 02:14:03;;;;;;;18.05;4.22;;;3.60;99.90;;;;;;5114429;28;20051;-62
2023/04/14 02:16:29;;;;;;;18.42;3.85;;;3.70;99.90;;;;;;5115576;28;20065;-65
2023/04/14 02:18:57;;;;;;;12.05;3.75;;;3.60;99.90;;;;;;5095954;28;20144;-63
2023/04/14 02:21:24;;;;;;;7.57;4.00;;;4.00;99.90;;;;;;5094696;28;20048;-62
2023/04/14 02:23:50;;;;;;;15.40;4.15;;;3.70;99.90;;;;;;5094873;28;20145;-63
2023/04/14 02:26:21;;;;;;;16.40;3.60;;;3.90;99.90;;;;;;5094943;28;20094;-63
2023/04/14 02:29:06;;;;;;;12.90;4.47;;;;;;;;;;5108988;28;20040;-63
2023/04/14 02:31:34;;;;;;;17.67;3.63;;;3.70;99.90;;;;;;5115028;28;20105;-63
2023/04/14 02:34:04;;;;;;;9.65;3.63;;;3.60;99.90;;;;;;5114070;28;20055;-64
2023/04/14 02:36:36;;;;;;;10.98;3.70;;;3.50;99.90;;;;;;5114751;28;20047;-66
2023/04/14 02:39:10;;;;;;;14.00;3.92;;;3.60;99.90;;;;;;5101702;28;20157;-63
2023/04/14 02:41:40;;;;;;;12.07;4.32;;;3.50;99.90;;;;;;5094239;28;20484;-64
2023/04/14 02:44:22;;;;;;;17.80;4.43;;;3.20;99.90;;;;;;5094413;28;20518;-65
2023/04/14 02:47:02;;;;;;;10.98;3.85;;;3.40;99.90;;;;;;5093359;28;20489;-63
2023/04/14 02:49:40;;;;;;;15.32;4.32;;;;;;;;;;5107016;28;20044;-63
2023/04/14 02:52:09;;;;;;;13.38;4.13;;;3.60;99.90;;;;;;5114796;28;20103;-63
2023/04/14 02:54:37;;;;;;;13.18;3.72;;;3.60;99.90;;;;;;5114726;28;20143;-66
2023/04/14 02:57:04;;;;;;;18.65;3.58;;;3.50;99.90;;;;;;5114542;28;20044;-62
2023/04/14 02:59:34;;;;;;;12.40;3.95;;;3.70;99.90;;;;;;5104050;27;20407;-63
2023/04/14 03:02:03;;;;;;;12.98;4.10;;;3.40;99.90;;;;;;5094084;28;20059;-65
2023/04/14 03:04:33;;;;;;;10.95;3.88;;;3.50;99.90;;;;;;5093791;28;20458;-63
2023/04/14 03:07:00;;;;;;;10.95;3.95;;;3.60;99.90;;;;;;5092994;28;20085;-62
2023/04/14 03:09:28;;;;;;;10.80;3.65;;;3.70;99.90;;;;;;5095025;28;20396;-63
2023/04/14 03:11:55;;;;;;;14.98;3.85;;;3.60;99.90;;;;;;5093626;28;20507;-62
2023/04/14 03:14:22;;;;;;;14.23;4.47;;;;;;;;;;5093845;28;20143;-62
2023/04/14 03:16:52;;;;;;;11.00;3.88;;;3.40;99.90;;;;;;5093857;28;20135;-63
2023/04/14 03:19:22;;;;;;;11.52;3.67;;;3.60;99.90;;;;;;5093472;28;20063;-65
2023/04/14 03:21:49;;;;;;;10.15;3.97;;;;;;;;;;5073846;28;20044;-62
2023/04/14 03:24:23;;;;;;;11.25;4.43;;;3.50;99.90;;;;;;5073425;28;20084;-64
2023/04/14 03:26:57;;;;;;;10.45;3.72;;;3.20;99.90;;;;;;5073447;28;20075;-63
2023/04/14 03:29:33;;;;;;;14.85;4.75;;;3.10;99.90;;;;;;5073320;28;20110;-63
2023/04/14 03:32:01;;;;;;;15.50;3.80;;;3.20;99.90;;;;;;5111890;28;20059;-63
2023/04/14 03:34:30;;;;;;;12.73;4.55;;;3.20;99.90;;;;;;5113681;28;20140;-63
2023/04/14 03:36:58;;;;;;;10.52;3.88;;;3.20;99.90;;;;;;5113816;28;20407;-63
2023/04/14 03:39:33;;;;;;;11.00;3.72;;;3.40;99.90;;;;;;5113728;28;20051;-66
2023/04/14 03:42:00;;;;;;;12.25;3.90;;;3.10;99.90;;;;;;5113365;28;20067;-65
2023/04/14 03:44:30;;;;;;;14.45;4.30;;;;;;;;;;5113686;28;20051;-63
2023/04/14 03:46:59;;;;;;;8.23;3.47;;;;;;;;;;5113310;28;20051;-63
2023/04/14 03:49:27;;;;;;;15.48;4.20;;;;;;;;;;5113772;28;20159;-63
2023/04/14 03:51:56;;;;;;;9.18;3.50;;;2.70;99.90;;;;;;5101075;28;20075;-63
2023/04/14 03:54:24;;;;;;;12.10;3.80;;;2.90;99.90;;;;;;5092190;28;20090;-62
2023/04/14 03:56:54;;;;;;;12.45;3.70;;;3.00;99.90;;;;;;5091616;28;20452;-65
2023/04/14 03:59:23;;;;;;;14.00;4.03;;;3.10;99.90;;;;;;5093082;28;20093;-65
2023/04/14 04:01:50;;;;;;;9.93;3.50;;;;;;;;;;5093811;28;20048;-62
2023/04/14 04:04:17;;;;;;;11.43;3.67;;;2.90;99.90;;;;;;5092980;28;20085;-63
2023/04/14 04:06:42;;;;;;;14.15;3.95;;;2.90;99.90;;;;;;5092941;28;20058;-62
2023/04/14 04:09:13;;;;;;;11.00;4.18;;;3.10;99.90;;;;;;5092867;28;20044;-62
2023/04/14 04:11:40;;;;;;;15.85;4.20;;;2.90;99.90;;;;;;5095180;28;20044;-63
2023/04/14 04:14:08;;;;;;;8.82;3.65;;;2.90;99.90;;;;;;5113251;28;20039;-63
2023/04/14 04:16:35;;;;;;;12.25;3.97;;;2.90;99.90;;;;;;5112548;28;20513;-63
2023/04/14 04:19:05;;;;;;;15.38;4.60;;;2.80;99.90;;;;;;5113039;28;20047;-65
2023/04/14 04:21:34;;;;;;;15.00;6.05;;;2.90;99.90;;;;;;5112999;28;20134;-65
2023/04/14 04:24:01;;;;;;;12.77;5.57;;;;;;;;;;5093728;28;20048;-62
2023/04/14 04:26:27;;;;;;;9.75;3.70;;;2.90;99.90;;;;;;5092337;28;20075;-63
2023/04/14 04:28:59;;;;;;;9.23;3.58;;;2.80;99.90;;;;;;5092462;28;20487;-63
2023/04/14 04:31:27;;;;;;;14.82;4.00;;;2.90;99.90;;;;;;5091806;28;20051;-62
2023/04/14 04:33:53;;;;;;;10.75;3.65;;;2.80;99.90;;;;;;5106644;28;20071;-63
2023/04/14 04:36:20;;;;;;;10.00;4.18;;;2.90;99.90;;;;;;5112740;28;20048;-62
2023/04/14 04:38:48;;;;;;;10.57;3.60;;;2.60;99.90;;;;;;5112699;28;20090;-62
2023/04/14 04:41:23;;;;;;;16.10;3.78;;;;;;;;;;5112727;28;20055;-63
2023/04/14 04:43:49;;;;;;;15.60;3.88;;;2.50;99.90;;;;;;5110940;28;20047;-63
2023/04/14 04:46:53;;;;;;;13.02;4.03;;;2.50;99.90;;;;;;5112409;28;20547;-63
2023/04/14 04:49:19;;;;;;;8.35;4.03;;;2.70;99.90;;;;;;5112534;28;20036;-63
2023/04/14 04:51:45;;;;;;;8.23;3.83;;;2.90;99.90;;;;;;5112649;28;20085;-63
2023/04/14 04:54:11;;;;;;;17.95;4.30;;;3.00;99.90;;;;;;5103326;28;20048;-65
2023/04/14 04:56:37;;;;;;;11.10;3.67;;;;;;;;;;5092171;28;20130;-63
2023/04/14 04:59:03;;;;;;;12.70;3.90;;;2.80;99.90;;;;;;5092137;28;20087;-63
2023/04/14 05:01:29;;;;;;;10.50;4.05;;;;;;;;;;5091850;28;20483;-63
2023/04/14 05:03:55;;;;;;;;;;;2.80;99.90;;;;;;5095240;28;20052;-62
2023/04/14 05:06:20;;;;;;;11.60;3.67;;;3.00;99.90;;;;;;5112183;28;20333;-63
2023/04/14 05:08:46;;;;;;;18.17;4.57;;;3.00;99.90;;;;;;5112753;28;20100;-64
2023/04/14 05:11:12;;;;;;;13.73;3.80;;;;;;;;;;5115321;28;20107;-63
2023/04/14 05:13:38;;;;;;;14.18;4.05;;;3.10;99.90;;;;;;5116339;28;20404;-63
2023/04/14 05:16:08;;;;;;;15.57;4.15;;;3.10;99.90;;;;;;5098389;28;20052;-63
2023/04/14 05:18:35;;;;;;;8.60;3.95;;;3.20;99.90;;;;;;5096076;28;20056;-65
2023/04/14 05:21:05;;;;;;;12.23;4.30;;;3.00;99.90;;;;;;5095900;28;20043;-64
2023/04/14 05:23:35;;;;;;;13.27;4.63;;;;;;;;;;5094712;28;20131;-63
2023/04/14 05:26:02;;;;;;;18.88;4.25;;;2.90;99.90;;;;;;5109552;28;20047;-63
2023/04/14 05:28:28;;;;;;;13.13;4.05;;;2.90;99.90;;;;;;5116131;28;20055;-63
2023/04/14 05:30:54;;;;;;;12.23;4.72;;;3.20;99.90;;;;;;5116307;28;20043;-63
2023/04/14 05:33:20;;;;;;;11.35;4.20;;;;;;;;;;5116289;28;20070;-63
2023/04/14 05:35:46;;;;;;;;;;;3.20;99.90;;;;;;5107388;28;20480;-64
2023/04/14 05:38:13;;;;;;;15.55;4.93;;;3.40;99.90;;;;;;5115782;28;19976;-64
2023/04/14 05:40:39;;;;;;;14.65;4.60;;;3.70;99.90;;;;;;5106293;28;20442;-63
2023/04/14 05:43:05;;;;;;;8.75;4.10;;;;;;;;;;5088409;28;20085;-68
2023/04/14 05:45:32;;;;;;;8.20;3.72;;;4.10;99.90;;;;;;5095366;28;20047;-63
2023/04/14 05:47:57;;;;;;;;;;;3.70;99.90;;;;;;5116226;28;20043;-63
2023/04/14 05:50:24;;;;;;;14.60;4.80;;;;;;;;;;5114905;28;20320;-65
2023/04/14 05:52:50;;;;;;;13.68;4.47;;;4.00;99.90;;;;;;5115579;28;20134;-63
2023/04/14 05:55:17;;;;;;;13.55;4.47;;;4.10;99.90;;;;;;5094547;28;20753;-68
2023/04/14 05:57:43;;;;;;;14.80;4.38;;;4.30;99.90;;;;;;5094425;28;20192;-64
2023/04/14 06:00:11;;;;;;;10.13;4.22;;;4.80;99.90;;;;;;5095291;28;20093;-63
2023/04/14 06:02:40;;;;;;;10.23;3.95;;;3.10;99.90;;;;;;5095356;28;20051;-65
2023/04/14 06:05:06;;;;;;;18.85;4.53;;;4.20;99.90;;;;;;5095601;28;20474;-63
2023/04/14 06:07:35;;;;;;;;;;;4.40;99.90;;;;;;5096892;28;20131;-66
2023/04/14 06:10:00;;;;;;;11.32;3.80;;;4.50;99.90;;;;;;5090008;28;20831;-63
2023/04/14 06:12:27;;;;;;;12.57;4.38;;;4.70;99.90;;;;;;5094058;28;20088;-63
2023/04/14 06:14:53;;;;;;;8.82;3.60;;;4.40;99.90;;;;;;5094872;28;20048;-64
2023/04/14 06:17:19;;;;;;;11.73;4.88;;;4.60;99.90;;;;;;5094255;28;20058;-63
2023/04/14 06:19:47;;;;;;;12.98;4.28;;;5.00;99.90;;;;;;5094635;28;20044;-64
2023/04/14 06:22:15;;;;;;;15.40;4.75;;;5.00;99.90;;;;;;5094751;28;20056;-63
2023/04/14 06:24:41;;;;;;;14.48;4.88;;;4.90;99.90;;;;;;5093984;28;20051;-64
2023/04/14 06:27:08;;;;;;;9.75;4.28;;;5.30;99.90;;;;;;5094329;28;20055;-65
2023/04/14 06:29:33;;;;;;;;;;;5.10;99.90;;;;;;5096140;28;20044;-64
2023/04/14 06:32:00;;;;;;;11.02;3.95;;;5.40;99.90;;;;;;5093889;28;19942;-72
2023/04/14 06:34:25;;;;;;;11.00;3.85;;;5.40;99.90;;;;;;5094512;28;20096;-63
2023/04/14 06:36:51;;;;;;;15.05;3.70;;;5.50;99.90;;;;;;5092597;28;20446;-63
2023/04/14 06:39:20;;;;;;;12.57;3.63;;;5.50;99.90;;;;;;5092614;28;20373;-71
2023/04/14 06:41:46;;;;;;;11.57;3.42;;;5.90;99.90;;;;;;5092585;28;20056;-64
2023/04/14 06:44:12;;;;;;;9.88;3.60;;;5.90;99.90;;;;;;5091290;28;20165;-63
2023/04/14 06:46:38;;;;;;;9.95;3.40;;;6.10;99.90;;;;;;5093012;28;20059;-65
2023/04/14 06:49:04;;;;;;;8.90;4.15;;;6.20;99.90;;;;;;5100847;28;20043;-63
2023/04/14 06:51:31;;;;;;;9.27;3.67;;;6.40;99.90;;;;;;5113705;28;20054;-64
2023/04/14 06:53:57;;;;;;;16.20;4.13;;;;;;;;;;5114967;28;20101;-64
2023/04/14 06:56:23;;;;;;;12.02;4.43;;;6.30;99.90;;;;;;5114243;28;20055;-64
2023/04/14 06:58:48;;;;;;;14.32;3.50;;;6.90;99.90;;;;;;5114670;28;20117;-64
2023/04/14 07:01:14;;;;;;;11.48;3.80;;;6.90;99.90;;;;;;5114896;28;20041;-64
2023/04/14 07:03:40;;;;;;;12.35;3.90;;;6.80;99.90;;;;;;5113548;28;20100;-64
2023/04/14 07:06:09;;;;;;;12.45;3.97;;;7.20;99.90;;;;;;5114230;27;20039;-64
2023/04/14 07:08:36;;;;;;;15.20;3.95;;;7.10;99.90;;;;;;5114383;27;20047;-64
2023/04/14 07:11:07;;;;;;;15.88;3.80;;;7.30;99.90;;;;;;5113853;28;20044;-63
2023/04/14 07:13:33;;;;;;;9.27;3.80;;;7.20;99.90;;;;;;5114273;28;20109;-65
2023/04/14 07:16:01;;;;;;;13.13;3.70;;;7.20;99.90;;;;;;5114278;28;20048;-64
2023/04/14 07:18:27;;;;;;;11.10;4.32;;;7.90;99.90;;;;;;5114217;28;20054;-64
2023/04/14 07:20:53;;;;;;;;;;;7.60;99.90;;;;;;5114617;28;20100;-66
2023/04/14 07:23:20;;;;;;;11.65;4.20;;;7.70;99.90;;;;;;5114166;28;19919;-64
2023/04/14 07:25:53;;;;;;;10.07;3.95;;;8.00;99.90;;;;;;5113761;28;20043;-63
2023/04/14 07:28:19;;;;;;;9.18;3.72;;;7.90;99.90;;;;;;5114009;28;20047;-64
2023/04/14 07:30:45;;;;;;;15.93;4.60;;;7.90;99.90;;;;;;5112672;28;20185;-63
2023/04/14 07:33:11;;;;;;;9.43;4.00;;;8.20;99.90;;;;;;5113361;28;20138;-63
2023/04/14 07:35:37;;;;;;;11.23;3.83;;;8.00;99.90;;;;;;5113834;28;20051;-64
2023/04/14 07:38:03;;;;;;;11.90;4.25;;;8.30;99.90;;;;;;5113892;28;20047;-64
2023/04/14 07:40:29;;;;;;;8.05;3.70;;;8.40;99.90;;;;;;5113567;28;20471;-63
2023/04/14 07:42:56;;;;;;;14.05;4.25;;;8.50;99.90;;;;;;5095747;28;20092;-64
2023/04/14 07:45:22;;;;;;;9.85;4.20;;;8.50;99.90;;;;;;5113486;28;20547;-64
2023/04/14 07:47:48;;;;;;;15.88;4.20;;;8.90;99.90;;;;;;5113691;28;20055;-65
2023/04/14 07:50:14;;;;;;;11.05;4.00;;;9.00;99.90;;;;;;5113675;28;20045;-64
2023/04/14 07:52:40;;;;;;;14.50;3.72;;;9.30;99.90;;;;;;5113674;28;20052;-63
2023/04/14 07:55:06;;;;;;;9.73;4.43;;;9.10;99.90;;;;;;5113156;28;20462;-63
2023/04/14 07:57:34;;;;;;;12.02;3.97;;;9.30;99.90;;;;;;5113822;28;20093;-64
2023/04/14 08:00:01;;;;;;;15.07;3.97;;;9.50;99.90;;;;;;5113723;28;20086;-63
2023/04/14 08:02:26;;;;;;;9.88;3.58;;;9.60;99.90;;;;;;5113485;28;20050;-64
2023/04/14 08:04:52;;;;;;;9.05;3.20;;;9.80;99.90;;;;;;5113412;28;20043;-64
2023/04/14 08:07:18;;;;;;;12.60;3.63;;;9.90;99.90;;;;;;5113310;28;20104;-65
2023/04/14 08:09:44;;;;;;;14.98;3.90;;;10.00;99.90;;;;;;5112910;28;20373;-65
2023/04/14 08:12:10;;;;;;;14.35;4.00;;;10.20;99.90;;;;;;5113215;28;20122;-63
2023/04/14 08:14:36;;;;;;;9.57;3.60;;;9.80;99.90;;;;;;5113217;28;20091;-63
2023/04/14 08:17:02;;;;;;;;;;;10.40;99.90;;;;;;5113614;28;20047;-64
2023/04/14 08:19:29;;;;;;;15.80;4.38;;;10.40;99.90;;;;;;5113054;28;20432;-63
2023/04/14 08:21:55;;;;;;;12.50;3.75;;;10.70;99.90;;;;;;5111978;28;20164;-64
2023/04/14 08:24:21;;;;;;;10.27;3.65;;;10.40;99.90;;;;;;5112752;28;20395;-63
2023/04/14 08:26:47;;;;;;;16.17;3.83;;;10.70;99.90;;;;;;5112982;28;20051;-63
2023/04/14 08:29:13;;;;;;;10.38;3.63;;;10.90;99.90;;;;;;5111763;28;20047;-63
2023/04/14 08:31:38;;;;;;;14.80;3.70;;;10.80;99.90;;;;;;5112768;28;20143;-63
2023/04/14 08:34:04;;;;;;;15.43;3.95;;;11.00;99.90;;;;;;5112931;28;20070;-64
2023/04/14 08:36:30;;;;;;;13.13;3.45;;;10.90;99.90;;;;;;5112886;28;20566;-64
2023/04/14 08:38:58;;;;;;;17.08;4.00;;;11.30;99.90;;;;;;5112470;28;20130;-64
2023/04/14 08:41:25;;;;;;;14.35;4.07;;;11.50;99.90;;;;;;5111591;28;20056;-65
2023/04/14 08:43:51;;;;;;;9.77;3.50;;;11.60;99.90;;;;;;5111519;28;20556;-66
2023/04/14 08:46:19;;;;;;;10.75;4.18;;;11.60;99.90;;;;;;5112683;28;20077;-64
2023/04/14 08:48:48;;;;;;;10.90;3.42;;;11.60;99.90;;;;;;5112373;28;20411;-64
2023/04/14 08:51:33;;;;;;;11.70;3.45;;;11.60;99.90;;;;;;5112376;28;20043;-64
2023/04/14 08:54:02;;;;;;;17.02;4.78;;;12.00;99.90;;;;;;5112558;28;20052;-64
2023/04/14 08:56:32;;;;;;;10.43;3.47;;;12.00;99.90;;;;;;5112573;28;20048;-64
2023/04/14 08:59:00;;;;;;;17.23;3.35;;;11.70;99.90;;;;;;5111132;28;20088;-64
2023/04/14 09:01:28;;;;;;;9.00;2.65;;;11.90;99.90;;;;;;5111211;28;20040;-64
2023/04/14 09:03:55;;;;;;;12.90;2.85;;;12.10;99.90;;;;;;5112450;28;20094;-65
2023/04/14 09:06:22;;;;;;;10.43;2.88;;;12.30;99.90;;;;;;5112220;28;20075;-63
2023/04/14 09:08:48;;;;;;;9.82;2.78;;;12.10;99.90;;;;;;5112081;28;20480;-64
2023/04/14 09:11:15;;;;;;;7.85;3.47;;;12.00;99.90;;;;;;5111973;28;20447;-65
2023/04/14 09:13:42;;;;;;;9.73;3.20;;;12.40;99.90;;;;;;5112324;28;20096;-65
2023/04/14 09:16:11;;;;;;;9.23;3.15;;;12.60;99.90;;;;;;5112376;28;20047;-64
2023/04/14 09:18:37;;;;;;;13.43;3.53;;;12.70;99.90;;;;;;5112388;28;20050;-64
2023/04/14 09:21:02;;;;;;;10.77;3.70;;;12.70;99.90;;;;;;5112117;28;20040;-64
2023/04/14 09:23:29;;;;;;;9.63;2.70;;;12.80;99.90;;;;;;5112232;28;20047;-65
2023/04/14 09:25:55;;;;;;;12.00;3.30;;;12.80;99.90;;;;;;5112232;28;20380;-65
2023/04/14 09:28:21;;;;;;;12.10;3.10;;;12.80;99.90;;;;;;5112308;28;20048;-64
2023/04/14 09:30:46;;;;;;;6.60;2.97;;;12.70;99.90;;;;;;5112170;28;20036;-64
2023/04/14 09:33:20;;;;;;;9.18;3.00;;;13.00;99.90;;;;;;5111806;28;20059;-64
2023/04/14 09:35:50;;;;;;;12.05;2.78;;;13.00;99.90;;;;;;5111852;28;20047;-64
2023/04/14 09:38:38;;;;;;;13.57;3.20;;;13.00;99.90;;;;;;5112256;28;20035;-64
2023/04/14 09:41:07;;;;;;;12.40;2.90;;;13.10;99.90;;;;;;5112129;28;20044;-64
2023/04/14 09:43:33;;;;;;;10.35;3.25;;;13.40;99.90;;;;;;5112201;28;20398;-64
2023/04/14 09:46:08;;;;;;;;;;;13.20;99.90;;;;;;5112590;28;20047;-64
2023/04/14 09:48:38;;;;;;;11.23;2.30;;;13.60;99.90;;;;;;5099909;28;19928;-65
2023/04/14 09:51:08;;;;;;;10.10;2.85;;;13.40;99.90;;;;;;5090090;28;20040;-64
2023/04/14 09:53:39;;;;;;;8.90;2.83;;;13.30;99.90;;;;;;5092125;28;20075;-64
2023/04/14 09:56:09;;;;;;;13.65;3.20;;;13.40;99.90;;;;;;5094461;28;20048;-65
2023/04/14 09:58:37;;;;;;;10.55;2.65;;;13.50;99.90;;;;;;5095550;28;20139;-66
2023/04/14 10:01:04;;;;;;;13.18;2.85;;;13.50;99.90;;;;;;5095325;28;20071;-64
2023/04/14 10:03:44;;;;;;;9.10;2.63;;;14.10;99.90;;;;;;5077479;28;20434;-66
2023/04/14 10:06:18;;;;;;;12.73;3.10;;;13.90;99.90;;;;;;5095088;28;20101;-65
2023/04/14 10:08:46;;;;;;;10.00;3.08;;;14.20;99.90;;;;;;5095662;28;20480;-64
2023/04/14 10:11:28;;;;;;;8.57;2.90;;;13.90;99.90;;;;;;5095222;28;20083;-65
2023/04/14 10:13:56;;;;;;;12.85;3.25;;;13.80;99.90;;;;;;5095141;28;20090;-66
2023/04/14 10:16:23;;;;;;;7.93;2.80;;;13.70;99.90;;;;;;5093781;28;20044;-66
2023/04/14 10:18:50;;;;;;;8.70;2.75;;;13.70;99.90;;;;;;5094774;28;20036;-65
2023/04/14 10:21:16;;;;;;;11.25;3.17;;;13.20;99.90;;;;;;5095068;28;20048;-64
2023/04/14 10:23:42;;;;;;;9.60;2.85;;;13.20;99.90;;;;;;5095023;28;20048;-65
2023/04/14 10:26:10;;;;;;;14.00;3.28;;;13.20;99.90;;;;;;5095005;28;20488;-64
2023/04/14 10:28:44;;;;;;;8.63;2.92;;;13.40;99.90;;;;;;5093680;28;20044;-64
2023/04/14 10:31:24;;;;;;;7.75;3.15;;;13.20;99.90;;;;;;5094771;28;20055;-66
2023/04/14 10:33:49;;;;;;;12.38;3.30;;;13.70;99.90;;;;;;5094727;28;20492;-64
2023/04/14 10:36:24;;;;;;;11.98;2.83;;;13.70;99.90;;;;;;5094734;28;20060;-65
2023/04/14 10:39:04;;;;;;;15.38;3.72;;;13.90;99.90;;;;;;5094706;28;20128;-64
2023/04/14 10:41:46;;;;;;;10.15;3.00;;;14.00;99.90;;;;;;5094729;28;20063;-64
2023/04/14 10:44:26;;;;;;;10.35;3.10;;;14.50;99.90;;;;;;5094603;28;20051;-64
2023/04/14 10:46:53;;;;;;;8.13;2.80;;;14.90;99.90;;;;;;5094565;28;20048;-65
2023/04/14 10:49:27;;;;;;;10.88;2.63;;;14.90;99.90;;;;;;5093856;28;20522;-65
2023/04/14 10:51:53;;;;;;;9.27;2.65;;;15.00;99.90;;;;;;5094491;28;20055;-64
2023/04/14 10:54:19;;;;;;;11.18;2.50;;;15.20;99.90;;;;;;5094707;28;20127;-64
2023/04/14 10:57:11;;;;;;;7.72;2.95;;;15.20;99.90;;;;;;5094405;28;20040;-64
2023/04/14 10:59:46;;;;;;;9.15;2.60;;;15.00;99.90;;;;;;5094493;28;20044;-66
2023/04/14 11:02:31;;;;;;;9.98;2.60;;;15.20;99.90;;;;;;5094025;28;20393;-64
2023/04/14 11:05:05;;;;;;;11.73;2.85;;;15.20;99.90;;;;;;5094179;28;20051;-64
2023/04/14 11:07:50;;;;;;;8.13;2.72;;;15.30;99.90;;;;;;5093328;28;20055;-65
2023/04/14 11:10:16;;;;;;;9.05;2.92;;;15.50;99.90;;;;;;5094045;28;20044;-65
2023/04/14 11:12:43;;;;;;;9.38;2.80;;;15.40;99.90;;;;;;5094112;28;20085;-64
2023/04/14 11:15:09;;;;;;;10.45;3.17;;;14.80;99.90;;;;;;5094021;28;20397;-64
2023/04/14 11:17:42;;;;;;;10.85;3.25;;;14.90;99.90;;;;;;5093708;28;20087;-65
2023/04/14 11:20:13;;;;;;;7.68;2.17;;;14.80;99.90;;;;;;5093870;28;20040;-64
2023/04/14 11:22:42;;;;;;;8.40;2.70;;;14.70;99.90;;;;;;5093831;28;20063;-64
2023/04/14 11:25:11;;;;;;;9.13;2.58;;;14.70;99.90;;;;;;5093828;28;20086;-64
2023/04/14 11:27:38;;;;;;;11.20;2.65;;;14.90;99.90;;;;;;5093726;28;20476;-65
2023/04/14 11:30:06;;;;;;;11.63;3.10;;;15.50;99.90;;;;;;5093386;28;20560;-64
2023/04/14 11:32:56;;;;;;;8.77;2.75;;;15.30;99.90;;;;;;5093388;28;20051;-64
2023/04/14 11:35:31;;;;;;;7.63;2.63;;;15.50;99.90;;;;;;5093737;28;20083;-64
2023/04/14 11:37:59;;;;;;;8.23;2.47;;;16.00;99.90;;;;;;5093671;28;20415;-66
2023/04/14 11:40:28;;;;;;;11.63;3.15;;;15.60;99.90;;;;;;5092532;28;20454;-64
2023/04/14 11:42:56;;;;;;;9.45;2.40;;;15.60;99.90;;;;;;5093500;28;20040;-63
2023/04/14 11:45:26;;;;;;;7.68;2.63;;;15.60;99.90;;;;;;5093308;28;20044;-64
2023/04/14 11:47:58;;;;;;;13.52;3.17;;;15.30;99.90;;;;;;5093747;28;20184;-63
2023/04/14 11:50:26;;;;;;;9.98;2.90;;;15.40;99.90;;;;;;5093522;28;20062;-64
2023/04/14 11:52:54;;;;;;;11.65;2.83;;;15.70;99.90;;;;;;5093471;28;20143;-64
2023/04/14 11:55:22;;;;;;;11.20;3.40;;;15.80;99.90;;;;;;5093268;28;20052;-63
2023/04/14 11:57:48;;;;;;;13.80;2.53;;;16.40;99.90;;;;;;5092953;28;20533;-64
2023/04/14 12:00:14;;;;;;;;;;;16.40;99.90;;;;;;5093330;28;20131;-63
2023/04/14 12:02:43;;;;;;;10.15;3.45;;;16.20;99.90;;;;;;5092105;28;20015;-63
2023/04/14 12:05:09;;;;;;;12.75;2.75;;;16.40;99.90;;;;;;5093059;28;20050;-64
2023/04/14 12:07:34;;;;;;;;;;;16.50;99.90;;;;;;5093511;28;20052;-63
2023/04/14 12:10:04;;;;;;;8.93;2.55;;;16.40;99.90;;;;;;5092912;28;19920;-63
2023/04/14 12:12:31;;;;;;;10.48;3.03;;;16.30;99.90;;;;;;5092928;28;20048;-63
2023/04/14 12:14:57;;;;;;;13.18;2.40;;;15.80;99.90;;;;;;5092878;28;20044;-63
2023/04/14 12:17:24;;;;;;;9.13;2.33;;;15.80;99.90;;;;;;5092647;28;20056;-64
2023/04/14 12:19:50;;;;;;;13.95;3.03;;;15.50;99.90;;;;;;5092829;28;20555;-63
2023/04/14 12:22:26;;;;;;;6.75;2.60;;;15.80;99.90;;;;;;5091719;28;20059;-63
2023/04/14 12:24:52;;;;;;;;;;;15.70;99.90;;;;;;5093296;28;20134;-63
2023/04/14 12:27:21;;;;;;;10.88;2.50;;;16.00;99.90;;;;;;5092714;28;19928;-63
2023/04/14 12:29:48;;;;;;;10.90;3.10;;;16.00;99.90;;;;;;5092307;28;20075;-64
2023/04/14 12:32:15;;;;;;;13.00;2.83;;;16.20;99.90;;;;;;5092368;28;20110;-64
2023/04/14 12:34:53;;;;;;;6.82;2.03;;;16.00;99.90;;;;;;5092604;28;20058;-64
2023/04/14 12:37:26;;;;;;;10.13;2.05;;;16.30;99.90;;;;;;5092622;28;20052;-64
2023/04/14 12:39:56;;;;;;;9.63;2.28;;;16.40;99.90;;;;;;5092608;28;20052;-63
2023/04/14 12:42:23;;;;;;;7.68;2.33;;;15.90;99.90;;;;;;5092521;28;20052;-63
2023/04/14 12:45:00;;;;;;;8.07;2.30;;;16.10;99.90;;;;;;5092159;28;20152;-63
2023/04/14 12:47:33;;;;;;;10.02;2.53;;;16.80;99.90;;;;;;5092349;28;20044;-63
2023/04/14 12:50:27;;;;;;;11.10;2.63;;;17.00;99.90;;;;;;5091988;28;20048;-63
2023/04/14 12:52:58;;;;;;;9.70;3.10;;;17.10;99.90;;;;;;5092384;28;20083;-64
2023/04/14 12:55:29;;;;;;;9.65;2.10;;;17.20;99.90;;;;;;5092287;28;20476;-63
2023/04/14 12:57:58;;;;;;;7.70;2.35;;;16.70;99.90;;;;;;5091748;28;20518;-66
2023/04/14 13:00:26;;;;;;;8.73;2.10;;;16.40;99.90;;;;;;5092218;28;20040;-63
2023/04/14 13:02:55;;;;;;;6.45;1.98;;;16.50;99.90;;;;;;5092201;28;20117;-65
2023/04/14 13:05:21;;;;;;;8.20;2.40;;;16.90;99.90;;;;;;5091133;28;20395;-63